sensor_id;sensor_type;location;lat;lon;timestamp;temperature;humidity
39033;DHT22;24794;51.982;5.878;2022-09-09T00:00:18;16.70;99.90
39033;DHT22;24794;51.982;5.878;2022-09-09T00:01:47;16.70;99.90
39033;DHT22;24794;51.982;5.878;2022-09-09T00:03:02;16.70;99.90
39033;DHT22;24794;51.982;5.878;2022-09-09T00:04:15;16.70;99.90
39033;DHT22;24794;51.982;5.878;2022-09-09T00:08:22;16.80;99.90
39033;DHT22;24794;51.982;5.878;2022-09-09T00:09:27;16.90;99.90
39033;DHT22;24794;51.982;5.878;2022-09-09T00:10:37;16.80;99.90
39033;DHT22;24794;51.982;5.878;2022-09-09T00:12:02;16.90;99.90
39033;DHT22;24794;51.982;5.878;2022-09-09T00:13:20;16.90;99.90
39033;DHT22;24794;51.982;5.878;2022-09-09T00:17:12;17.00;99.90
39033;DHT22;24794;51.982;5.878;2022-09-09T00:19:28;17.00;99.90
39033;DHT22;24794;51.982;5.878;2022-09-09T00:21:07;17.00;99.90
39033;DHT22;24794;51.982;5.878;2022-09-09T00:22:29;17.00;99.90
39033;DHT22;24794;51.982;5.878;2022-09-09T00:23:45;17.00;99.90
39033;DHT22;24794;51.982;5.878;2022-09-09T00:24:55;17.00;99.90
39033;DHT22;24794;51.982;5.878;2022-09-09T00:26:22;17.00;99.90
39033;DHT22;24794;51.982;5.878;2022-09-09T00:27:36;17.00;99.90
39033;DHT22;24794;51.982;5.878;2022-09-09T00:28:55;17.00;99.90
39033;DHT22;24794;51.982;5.878;2022-09-09T00:30:12;17.00;99.90
39033;DHT22;24794;51.982;5.878;2022-09-09T00:31:20;17.00;99.90
39033;DHT22;24794;51.982;5.878;2022-09-09T00:32:22;17.10;99.90
39033;DHT22;24794;51.982;5.878;2022-09-09T00:33:26;17.10;99.90
39033;DHT22;24794;51.982;5.878;2022-09-09T00:34:28;17.10;99.90
39033;DHT22;24794;51.982;5.878;2022-09-09T00:35:38;17.10;99.90
39033;DHT22;24794;51.982;5.878;2022-09-09T00:36:41;17.10;99.90
39033;DHT22;24794;51.982;5.878;2022-09-09T00:37:46;17.10;99.90
39033;DHT22;24794;51.982;5.878;2022-09-09T00:39:01;17.20;99.90
39033;DHT22;24794;51.982;5.878;2022-09-09T00:43:37;17.20;99.90
39033;DHT22;24794;51.982;5.878;2022-09-09T00:44:46;17.20;99.90
39033;DHT22;24794;51.982;5.878;2022-09-09T00:46:06;17.20;99.90
39033;DHT22;24794;51.982;5.878;2022-09-09T00:48:54;17.20;99.90
39033;DHT22;24794;51.982;5.878;2022-09-09T00:54:15;17.30;99.90
39033;DHT22;24794;51.982;5.878;2022-09-09T00:57:11;17.30;99.90
39033;DHT22;24794;51.982;5.878;2022-09-09T00:58:13;17.30;99.90
39033;DHT22;24794;51.982;5.878;2022-09-09T00:59:46;17.30;99.90
39033;DHT22;24794;51.982;5.878;2022-09-09T01:00:55;17.30;99.90
39033;DHT22;24794;51.982;5.878;2022-09-09T01:01:57;17.30;99.90
39033;DHT22;24794;51.982;5.878;2022-09-09T01:04:29;17.30;99.90
39033;DHT22;24794;51.982;5.878;2022-09-09T01:06:35;17.30;99.90
39033;DHT22;24794;51.982;5.878;2022-09-09T01:07:40;17.30;99.90
39033;DHT22;24794;51.982;5.878;2022-09-09T01:09:55;17.40;99.90
39033;DHT22;24794;51.982;5.878;2022-09-09T01:10:58;17.40;99.90
39033;DHT22;24794;51.982;5.878;2022-09-09T01:13:11;17.40;99.90
39033;DHT22;24794;51.982;5.878;2022-09-09T01:15:38;17.40;99.90
39033;DHT22;24794;51.982;5.878;2022-09-09T01:16:42;17.40;99.90
39033;DHT22;24794;51.982;5.878;2022-09-09T01:18:49;17.40;99.90
39033;DHT22;24794;51.982;5.878;2022-09-09T01:22:01;17.40;99.90
39033;DHT22;24794;51.982;5.878;2022-09-09T01:26:03;17.40;99.90
39033;DHT22;24794;51.982;5.878;2022-09-09T01:27:06;17.40;99.90
39033;DHT22;24794;51.982;5.878;2022-09-09T01:28:10;17.40;99.90
39033;DHT22;24794;51.982;5.878;2022-09-09T01:29:15;17.40;99.90
39033;DHT22;24794;51.982;5.878;2022-09-09T01:30:17;17.30;99.90
39033;DHT22;24794;51.982;5.878;2022-09-09T01:32:00;17.30;99.90
39033;DHT22;24794;51.982;5.878;2022-09-09T01:33:01;17.30;99.90
39033;DHT22;24794;51.982;5.878;2022-09-09T01:34:09;17.30;99.90
39033;DHT22;24794;51.982;5.878;2022-09-09T01:35:32;17.30;99.90
39033;DHT22;24794;51.982;5.878;2022-09-09T01:38:00;17.30;99.90
39033;DHT22;24794;51.982;5.878;2022-09-09T01:39:00;17.30;99.90
39033;DHT22;24794;51.982;5.878;2022-09-09T01:40:02;17.30;99.90
39033;DHT22;24794;51.982;5.878;2022-09-09T01:41:03;17.30;99.90
39033;DHT22;24794;51.982;5.878;2022-09-09T01:42:06;17.30;99.90
39033;DHT22;24794;51.982;5.878;2022-09-09T01:43:07;17.30;99.90
39033;DHT22;24794;51.982;5.878;2022-09-09T01:44:08;17.30;99.90
39033;DHT22;24794;51.982;5.878;2022-09-09T01:45:09;17.30;99.90
39033;DHT22;24794;51.982;5.878;2022-09-09T01:46:11;17.30;99.90
39033;DHT22;24794;51.982;5.878;2022-09-09T01:47:13;17.30;99.90
39033;DHT22;24794;51.982;5.878;2022-09-09T01:48:15;17.30;99.90
39033;DHT22;24794;51.982;5.878;2022-09-09T01:49:17;17.30;99.90
39033;DHT22;24794;51.982;5.878;2022-09-09T01:50:19;17.30;99.90
39033;DHT22;24794;51.982;5.878;2022-09-09T01:51:20;17.30;99.90
39033;DHT22;24794;51.982;5.878;2022-09-09T01:53:31;17.30;99.90
39033;DHT22;24794;51.982;5.878;2022-09-09T01:54:32;17.30;99.90
39033;DHT22;24794;51.982;5.878;2022-09-09T01:55:39;17.30;99.90
39033;DHT22;24794;51.982;5.878;2022-09-09T01:56:42;17.30;99.90
39033;DHT22;24794;51.982;5.878;2022-09-09T02:00:22;17.30;99.90
39033;DHT22;24794;51.982;5.878;2022-09-09T02:03:52;17.20;99.90
39033;DHT22;24794;51.982;5.878;2022-09-09T02:06:20;17.20;99.90
39033;DHT22;24794;51.982;5.878;2022-09-09T02:08:33;17.20;99.90
39033;DHT22;24794;51.982;5.878;2022-09-09T02:09:39;17.20;99.90
39033;DHT22;24794;51.982;5.878;2022-09-09T02:10:46;17.20;99.90
39033;DHT22;24794;51.982;5.878;2022-09-09T02:11:58;17.20;99.90
39033;DHT22;24794;51.982;5.878;2022-09-09T02:13:19;17.20;99.90
39033;DHT22;24794;51.982;5.878;2022-09-09T02:14:32;17.20;99.90
39033;DHT22;24794;51.982;5.878;2022-09-09T02:16:50;17.20;99.90
39033;DHT22;24794;51.982;5.878;2022-09-09T02:17:54;17.20;99.90
39033;DHT22;24794;51.982;5.878;2022-09-09T02:19:10;17.20;99.90
39033;DHT22;24794;51.982;5.878;2022-09-09T02:20:14;17.20;99.90
39033;DHT22;24794;51.982;5.878;2022-09-09T02:21:17;17.20;99.90
39033;DHT22;24794;51.982;5.878;2022-09-09T02:22:19;17.20;99.90
39033;DHT22;24794;51.982;5.878;2022-09-09T02:23:21;17.10;99.90
39033;DHT22;24794;51.982;5.878;2022-09-09T02:24:22;17.10;99.90
39033;DHT22;24794;51.982;5.878;2022-09-09T02:25:26;17.10;99.90
39033;DHT22;24794;51.982;5.878;2022-09-09T02:26:28;17.10;99.90
39033;DHT22;24794;51.982;5.878;2022-09-09T02:27:29;17.20;99.90
39033;DHT22;24794;51.982;5.878;2022-09-09T02:28:32;17.20;99.90
39033;DHT22;24794;51.982;5.878;2022-09-09T02:29:36;17.10;99.90
39033;DHT22;24794;51.982;5.878;2022-09-09T02:30:38;17.10;99.90
39033;DHT22;24794;51.982;5.878;2022-09-09T02:31:41;17.10;99.90
39033;DHT22;24794;51.982;5.878;2022-09-09T02:32:44;17.10;99.90
39033;DHT22;24794;51.982;5.878;2022-09-09T02:33:53;17.20;99.90
39033;DHT22;24794;51.982;5.878;2022-09-09T02:35:02;17.20;99.90
39033;DHT22;24794;51.982;5.878;2022-09-09T02:36:05;17.20;99.90
39033;DHT22;24794;51.982;5.878;2022-09-09T02:37:09;17.20;99.90
39033;DHT22;24794;51.982;5.878;2022-09-09T02:38:13;17.10;99.90
39033;DHT22;24794;51.982;5.878;2022-09-09T02:39:15;17.10;99.90
39033;DHT22;24794;51.982;5.878;2022-09-09T02:40:16;17.10;99.90
39033;DHT22;24794;51.982;5.878;2022-09-09T02:41:32;17.00;99.90
39033;DHT22;24794;51.982;5.878;2022-09-09T02:42:42;17.00;99.90
39033;DHT22;24794;51.982;5.878;2022-09-09T02:43:43;17.00;99.90
39033;DHT22;24794;51.982;5.878;2022-09-09T02:44:44;17.00;99.90
39033;DHT22;24794;51.982;5.878;2022-09-09T02:47:33;17.00;99.90
39033;DHT22;24794;51.982;5.878;2022-09-09T02:48:54;17.00;99.90
39033;DHT22;24794;51.982;5.878;2022-09-09T02:50:11;17.00;99.90
39033;DHT22;24794;51.982;5.878;2022-09-09T02:54:26;17.00;99.90
39033;DHT22;24794;51.982;5.878;2022-09-09T02:55:50;17.00;99.90
39033;DHT22;24794;51.982;5.878;2022-09-09T02:56:54;16.90;99.90
39033;DHT22;24794;51.982;5.878;2022-09-09T02:57:56;16.90;99.90
39033;DHT22;24794;51.982;5.878;2022-09-09T02:58:59;16.90;99.90
39033;DHT22;24794;51.982;5.878;2022-09-09T03:00:00;16.90;99.90
39033;DHT22;24794;51.982;5.878;2022-09-09T03:01:01;16.90;99.90
39033;DHT22;24794;51.982;5.878;2022-09-09T03:02:03;16.90;99.90
39033;DHT22;24794;51.982;5.878;2022-09-09T03:03:04;16.90;99.90
39033;DHT22;24794;51.982;5.878;2022-09-09T03:04:05;16.90;99.90
39033;DHT22;24794;51.982;5.878;2022-09-09T03:05:06;16.90;99.90
39033;DHT22;24794;51.982;5.878;2022-09-09T03:06:07;16.90;99.90
39033;DHT22;24794;51.982;5.878;2022-09-09T03:07:07;16.90;99.90
39033;DHT22;24794;51.982;5.878;2022-09-09T03:08:08;16.90;99.90
39033;DHT22;24794;51.982;5.878;2022-09-09T03:09:10;16.90;99.90
39033;DHT22;24794;51.982;5.878;2022-09-09T03:10:10;16.90;99.90
39033;DHT22;24794;51.982;5.878;2022-09-09T03:11:11;16.90;99.90
39033;DHT22;24794;51.982;5.878;2022-09-09T03:12:12;16.90;99.90
39033;DHT22;24794;51.982;5.878;2022-09-09T03:13:13;16.90;99.90
39033;DHT22;24794;51.982;5.878;2022-09-09T03:14:15;16.90;99.90
39033;DHT22;24794;51.982;5.878;2022-09-09T03:15:17;16.90;99.90
39033;DHT22;24794;51.982;5.878;2022-09-09T03:16:17;16.80;99.90
39033;DHT22;24794;51.982;5.878;2022-09-09T03:17:18;16.80;99.90
39033;DHT22;24794;51.982;5.878;2022-09-09T03:18:18;16.80;99.90
39033;DHT22;24794;51.982;5.878;2022-09-09T03:19:20;16.80;99.90
39033;DHT22;24794;51.982;5.878;2022-09-09T03:20:20;16.80;99.90
39033;DHT22;24794;51.982;5.878;2022-09-09T03:21:21;16.80;99.90
39033;DHT22;24794;51.982;5.878;2022-09-09T03:22:22;16.80;99.90
39033;DHT22;24794;51.982;5.878;2022-09-09T03:23:22;16.80;99.90
39033;DHT22;24794;51.982;5.878;2022-09-09T03:24:24;16.80;99.90
39033;DHT22;24794;51.982;5.878;2022-09-09T03:25:24;16.80;99.90
39033;DHT22;24794;51.982;5.878;2022-09-09T03:26:25;16.90;99.90
39033;DHT22;24794;51.982;5.878;2022-09-09T03:27:26;16.80;99.90
39033;DHT22;24794;51.982;5.878;2022-09-09T03:28:27;16.90;99.90
39033;DHT22;24794;51.982;5.878;2022-09-09T03:29:31;16.90;99.90
39033;DHT22;24794;51.982;5.878;2022-09-09T03:30:31;16.90;99.90
39033;DHT22;24794;51.982;5.878;2022-09-09T03:31:35;16.90;99.90
39033;DHT22;24794;51.982;5.878;2022-09-09T03:32:36;16.90;99.90
39033;DHT22;24794;51.982;5.878;2022-09-09T03:33:38;16.90;99.90
39033;DHT22;24794;51.982;5.878;2022-09-09T03:34:39;16.90;99.90
39033;DHT22;24794;51.982;5.878;2022-09-09T03:35:45;16.90;99.90
39033;DHT22;24794;51.982;5.878;2022-09-09T03:36:47;16.90;99.90
39033;DHT22;24794;51.982;5.878;2022-09-09T03:37:49;16.80;99.90
39033;DHT22;24794;51.982;5.878;2022-09-09T03:38:50;16.80;99.90
39033;DHT22;24794;51.982;5.878;2022-09-09T03:39:51;16.80;99.90
39033;DHT22;24794;51.982;5.878;2022-09-09T03:40:55;16.80;99.90
39033;DHT22;24794;51.982;5.878;2022-09-09T03:41:57;16.80;99.90
39033;DHT22;24794;51.982;5.878;2022-09-09T03:42:58;16.80;99.90
39033;DHT22;24794;51.982;5.878;2022-09-09T03:43:59;16.80;99.90
39033;DHT22;24794;51.982;5.878;2022-09-09T03:45:00;16.80;99.90
39033;DHT22;24794;51.982;5.878;2022-09-09T03:46:01;16.80;99.90
39033;DHT22;24794;51.982;5.878;2022-09-09T03:47:01;16.80;99.90
39033;DHT22;24794;51.982;5.878;2022-09-09T03:48:02;16.80;99.90
39033;DHT22;24794;51.982;5.878;2022-09-09T03:49:02;16.70;99.90
39033;DHT22;24794;51.982;5.878;2022-09-09T03:50:05;16.70;99.90
39033;DHT22;24794;51.982;5.878;2022-09-09T03:51:08;16.70;99.90
39033;DHT22;24794;51.982;5.878;2022-09-09T03:52:09;16.70;99.90
39033;DHT22;24794;51.982;5.878;2022-09-09T03:53:10;16.70;99.90
39033;DHT22;24794;51.982;5.878;2022-09-09T03:54:10;16.70;99.90
39033;DHT22;24794;51.982;5.878;2022-09-09T03:55:11;16.70;99.90
39033;DHT22;24794;51.982;5.878;2022-09-09T03:56:11;16.70;99.90
39033;DHT22;24794;51.982;5.878;2022-09-09T03:57:12;16.70;99.90
39033;DHT22;24794;51.982;5.878;2022-09-09T03:58:16;16.70;99.90
39033;DHT22;24794;51.982;5.878;2022-09-09T03:59:18;16.80;99.90
39033;DHT22;24794;51.982;5.878;2022-09-09T04:00:20;16.80;99.90
39033;DHT22;24794;51.982;5.878;2022-09-09T04:01:21;16.80;99.90
39033;DHT22;24794;51.982;5.878;2022-09-09T04:02:22;16.80;99.90
39033;DHT22;24794;51.982;5.878;2022-09-09T04:03:23;16.80;99.90
39033;DHT22;24794;51.982;5.878;2022-09-09T04:04:25;16.80;99.90
39033;DHT22;24794;51.982;5.878;2022-09-09T04:05:26;16.80;99.90
39033;DHT22;24794;51.982;5.878;2022-09-09T04:06:27;16.80;99.90
39033;DHT22;24794;51.982;5.878;2022-09-09T04:07:28;16.80;99.90
39033;DHT22;24794;51.982;5.878;2022-09-09T04:08:29;16.80;99.90
39033;DHT22;24794;51.982;5.878;2022-09-09T04:09:33;16.90;99.90
39033;DHT22;24794;51.982;5.878;2022-09-09T04:10:35;16.90;99.90
39033;DHT22;24794;51.982;5.878;2022-09-09T04:11:38;16.90;99.90
39033;DHT22;24794;51.982;5.878;2022-09-09T04:12:39;16.90;99.90
39033;DHT22;24794;51.982;5.878;2022-09-09T04:13:40;16.90;99.90
39033;DHT22;24794;51.982;5.878;2022-09-09T04:14:40;16.90;99.90
39033;DHT22;24794;51.982;5.878;2022-09-09T04:15:41;16.90;99.90
39033;DHT22;24794;51.982;5.878;2022-09-09T04:16:42;17.00;99.90
39033;DHT22;24794;51.982;5.878;2022-09-09T04:17:44;17.00;99.90
39033;DHT22;24794;51.982;5.878;2022-09-09T04:18:45;17.00;99.90
39033;DHT22;24794;51.982;5.878;2022-09-09T04:19:46;17.00;99.90
39033;DHT22;24794;51.982;5.878;2022-09-09T04:20:51;17.00;99.90
39033;DHT22;24794;51.982;5.878;2022-09-09T04:21:51;17.00;99.90
39033;DHT22;24794;51.982;5.878;2022-09-09T04:22:52;17.00;99.90
39033;DHT22;24794;51.982;5.878;2022-09-09T04:23:52;17.00;99.90
39033;DHT22;24794;51.982;5.878;2022-09-09T04:24:53;17.00;99.90
39033;DHT22;24794;51.982;5.878;2022-09-09T04:25:54;17.00;99.90
39033;DHT22;24794;51.982;5.878;2022-09-09T04:26:55;17.00;99.90
39033;DHT22;24794;51.982;5.878;2022-09-09T04:27:57;17.00;99.90
39033;DHT22;24794;51.982;5.878;2022-09-09T04:28:58;17.00;99.90
39033;DHT22;24794;51.982;5.878;2022-09-09T04:29:59;17.00;99.90
39033;DHT22;24794;51.982;5.878;2022-09-09T04:31:10;17.00;99.90
39033;DHT22;24794;51.982;5.878;2022-09-09T04:32:11;17.00;99.90
39033;DHT22;24794;51.982;5.878;2022-09-09T04:33:13;17.00;99.90
39033;DHT22;24794;51.982;5.878;2022-09-09T04:34:13;17.00;99.90
39033;DHT22;24794;51.982;5.878;2022-09-09T04:35:14;17.00;99.90
39033;DHT22;24794;51.982;5.878;2022-09-09T04:36:15;17.00;99.90
39033;DHT22;24794;51.982;5.878;2022-09-09T04:37:16;17.00;99.90
39033;DHT22;24794;51.982;5.878;2022-09-09T04:38:17;17.00;99.90
39033;DHT22;24794;51.982;5.878;2022-09-09T04:39:18;17.00;99.90
39033;DHT22;24794;51.982;5.878;2022-09-09T04:40:19;17.00;99.90
39033;DHT22;24794;51.982;5.878;2022-09-09T04:41:22;17.00;99.90
39033;DHT22;24794;51.982;5.878;2022-09-09T04:42:23;17.00;99.90
39033;DHT22;24794;51.982;5.878;2022-09-09T04:43:24;17.00;99.90
39033;DHT22;24794;51.982;5.878;2022-09-09T04:44:26;17.00;99.90
39033;DHT22;24794;51.982;5.878;2022-09-09T04:45:27;17.00;99.90
39033;DHT22;24794;51.982;5.878;2022-09-09T04:46:27;17.00;99.90
39033;DHT22;24794;51.982;5.878;2022-09-09T04:47:28;17.10;99.90
39033;DHT22;24794;51.982;5.878;2022-09-09T04:48:29;17.10;99.90
39033;DHT22;24794;51.982;5.878;2022-09-09T04:49:31;17.10;99.90
39033;DHT22;24794;51.982;5.878;2022-09-09T04:50:31;17.10;99.90
39033;DHT22;24794;51.982;5.878;2022-09-09T04:51:32;17.10;99.90
39033;DHT22;24794;51.982;5.878;2022-09-09T04:52:34;17.10;99.90
39033;DHT22;24794;51.982;5.878;2022-09-09T04:53:35;17.10;99.90
39033;DHT22;24794;51.982;5.878;2022-09-09T04:54:36;17.10;99.90
39033;DHT22;24794;51.982;5.878;2022-09-09T04:55:40;17.10;99.90
39033;DHT22;24794;51.982;5.878;2022-09-09T04:56:43;17.10;99.90
39033;DHT22;24794;51.982;5.878;2022-09-09T04:57:44;17.10;99.90
39033;DHT22;24794;51.982;5.878;2022-09-09T04:58:45;17.10;99.90
39033;DHT22;24794;51.982;5.878;2022-09-09T04:59:46;17.10;99.90
39033;DHT22;24794;51.982;5.878;2022-09-09T05:00:46;17.10;99.90
39033;DHT22;24794;51.982;5.878;2022-09-09T05:01:47;17.10;99.90
39033;DHT22;24794;51.982;5.878;2022-09-09T05:02:48;17.10;99.90
39033;DHT22;24794;51.982;5.878;2022-09-09T05:03:48;17.10;99.90
39033;DHT22;24794;51.982;5.878;2022-09-09T05:04:49;17.20;99.90
39033;DHT22;24794;51.982;5.878;2022-09-09T05:05:50;17.20;99.90
39033;DHT22;24794;51.982;5.878;2022-09-09T05:06:50;17.20;99.90
39033;DHT22;24794;51.982;5.878;2022-09-09T05:07:51;17.20;99.90
39033;DHT22;24794;51.982;5.878;2022-09-09T05:08:51;17.20;99.90
39033;DHT22;24794;51.982;5.878;2022-09-09T05:09:52;17.20;99.90
39033;DHT22;24794;51.982;5.878;2022-09-09T05:10:52;17.20;99.90
39033;DHT22;24794;51.982;5.878;2022-09-09T05:11:53;17.20;99.90
39033;DHT22;24794;51.982;5.878;2022-09-09T05:12:54;17.20;99.90
39033;DHT22;24794;51.982;5.878;2022-09-09T05:13:55;17.20;99.90
39033;DHT22;24794;51.982;5.878;2022-09-09T05:14:56;17.20;99.90
39033;DHT22;24794;51.982;5.878;2022-09-09T05:15:57;17.30;99.90
39033;DHT22;24794;51.982;5.878;2022-09-09T05:16:57;17.30;99.90
39033;DHT22;24794;51.982;5.878;2022-09-09T05:17:59;17.30;99.90
39033;DHT22;24794;51.982;5.878;2022-09-09T05:19:00;17.30;99.90
39033;DHT22;24794;51.982;5.878;2022-09-09T05:20:03;17.30;99.90
39033;DHT22;24794;51.982;5.878;2022-09-09T05:21:04;17.30;99.90
39033;DHT22;24794;51.982;5.878;2022-09-09T05:22:06;17.20;99.90
39033;DHT22;24794;51.982;5.878;2022-09-09T05:23:08;17.20;99.90
39033;DHT22;24794;51.982;5.878;2022-09-09T05:24:10;17.20;99.90
39033;DHT22;24794;51.982;5.878;2022-09-09T05:25:11;17.20;99.90
39033;DHT22;24794;51.982;5.878;2022-09-09T05:26:14;17.20;99.90
39033;DHT22;24794;51.982;5.878;2022-09-09T05:27:15;17.20;99.90
39033;DHT22;24794;51.982;5.878;2022-09-09T05:28:16;17.20;99.90
39033;DHT22;24794;51.982;5.878;2022-09-09T05:29:17;17.30;99.90
39033;DHT22;24794;51.982;5.878;2022-09-09T05:30:20;17.20;99.90
39033;DHT22;24794;51.982;5.878;2022-09-09T05:31:21;17.20;99.90
39033;DHT22;24794;51.982;5.878;2022-09-09T05:32:21;17.20;99.90
39033;DHT22;24794;51.982;5.878;2022-09-09T05:33:22;17.20;99.90
39033;DHT22;24794;51.982;5.878;2022-09-09T05:34:23;17.20;99.90
39033;DHT22;24794;51.982;5.878;2022-09-09T05:35:23;17.20;99.90
39033;DHT22;24794;51.982;5.878;2022-09-09T05:36:24;17.20;99.90
39033;DHT22;24794;51.982;5.878;2022-09-09T05:37:24;17.20;99.90
39033;DHT22;24794;51.982;5.878;2022-09-09T05:38:26;17.20;99.90
39033;DHT22;24794;51.982;5.878;2022-09-09T05:39:26;17.20;99.90
39033;DHT22;24794;51.982;5.878;2022-09-09T05:40:27;17.20;99.90
39033;DHT22;24794;51.982;5.878;2022-09-09T05:41:27;17.10;99.90
39033;DHT22;24794;51.982;5.878;2022-09-09T05:42:32;17.10;99.90
39033;DHT22;24794;51.982;5.878;2022-09-09T05:43:33;17.10;99.90
39033;DHT22;24794;51.982;5.878;2022-09-09T05:44:36;17.10;99.90
39033;DHT22;24794;51.982;5.878;2022-09-09T05:45:37;17.20;99.90
39033;DHT22;24794;51.982;5.878;2022-09-09T05:46:38;17.20;99.90
39033;DHT22;24794;51.982;5.878;2022-09-09T05:47:38;17.20;99.90
39033;DHT22;24794;51.982;5.878;2022-09-09T05:48:43;17.20;99.90
39033;DHT22;24794;51.982;5.878;2022-09-09T05:49:46;17.20;99.90
39033;DHT22;24794;51.982;5.878;2022-09-09T05:50:54;17.20;99.90
39033;DHT22;24794;51.982;5.878;2022-09-09T05:51:55;17.20;99.90
39033;DHT22;24794;51.982;5.878;2022-09-09T05:52:55;17.20;99.90
39033;DHT22;24794;51.982;5.878;2022-09-09T05:53:56;17.20;99.90
39033;DHT22;24794;51.982;5.878;2022-09-09T05:54:59;17.20;99.90
39033;DHT22;24794;51.982;5.878;2022-09-09T05:57:04;17.20;99.90
39033;DHT22;24794;51.982;5.878;2022-09-09T05:58:05;17.20;99.90
39033;DHT22;24794;51.982;5.878;2022-09-09T05:59:05;17.20;99.90
39033;DHT22;24794;51.982;5.878;2022-09-09T06:00:07;17.20;99.90
39033;DHT22;24794;51.982;5.878;2022-09-09T06:01:15;17.20;99.90
39033;DHT22;24794;51.982;5.878;2022-09-09T06:02:16;17.20;99.90
39033;DHT22;24794;51.982;5.878;2022-09-09T06:03:17;17.20;99.90
39033;DHT22;24794;51.982;5.878;2022-09-09T06:04:17;17.20;99.90
39033;DHT22;24794;51.982;5.878;2022-09-09T06:05:19;17.20;99.90
39033;DHT22;24794;51.982;5.878;2022-09-09T06:06:22;17.20;99.90
39033;DHT22;24794;51.982;5.878;2022-09-09T06:07:24;17.20;99.90
39033;DHT22;24794;51.982;5.878;2022-09-09T06:08:24;17.20;99.90
39033;DHT22;24794;51.982;5.878;2022-09-09T06:09:25;17.20;99.90
39033;DHT22;24794;51.982;5.878;2022-09-09T06:10:26;17.20;99.90
39033;DHT22;24794;51.982;5.878;2022-09-09T06:11:28;17.20;99.90
39033;DHT22;24794;51.982;5.878;2022-09-09T06:12:31;17.20;99.90
39033;DHT22;24794;51.982;5.878;2022-09-09T06:13:32;17.20;99.90
39033;DHT22;24794;51.982;5.878;2022-09-09T06:14:33;17.20;99.90
39033;DHT22;24794;51.982;5.878;2022-09-09T06:15:33;17.20;99.90
39033;DHT22;24794;51.982;5.878;2022-09-09T06:16:34;17.30;99.90
39033;DHT22;24794;51.982;5.878;2022-09-09T06:17:35;17.30;99.90
39033;DHT22;24794;51.982;5.878;2022-09-09T06:18:37;17.30;99.90
39033;DHT22;24794;51.982;5.878;2022-09-09T06:19:38;17.30;99.90
39033;DHT22;24794;51.982;5.878;2022-09-09T06:20:38;17.30;99.90
39033;DHT22;24794;51.982;5.878;2022-09-09T06:21:39;17.30;99.90
39033;DHT22;24794;51.982;5.878;2022-09-09T06:22:40;17.30;99.90
39033;DHT22;24794;51.982;5.878;2022-09-09T06:23:41;17.40;99.90
39033;DHT22;24794;51.982;5.878;2022-09-09T06:24:42;17.40;99.90
39033;DHT22;24794;51.982;5.878;2022-09-09T06:25:42;17.40;99.90
39033;DHT22;24794;51.982;5.878;2022-09-09T06:26:43;17.40;99.90
39033;DHT22;24794;51.982;5.878;2022-09-09T06:27:48;17.40;99.90
39033;DHT22;24794;51.982;5.878;2022-09-09T06:28:51;17.40;99.90
39033;DHT22;24794;51.982;5.878;2022-09-09T06:29:53;17.40;99.90
39033;DHT22;24794;51.982;5.878;2022-09-09T06:31:05;17.40;99.90
39033;DHT22;24794;51.982;5.878;2022-09-09T06:32:06;17.40;99.90
39033;DHT22;24794;51.982;5.878;2022-09-09T06:33:08;17.40;99.90
39033;DHT22;24794;51.982;5.878;2022-09-09T06:34:09;17.40;99.90
39033;DHT22;24794;51.982;5.878;2022-09-09T06:35:10;17.40;99.90
39033;DHT22;24794;51.982;5.878;2022-09-09T06:36:13;17.40;99.90
39033;DHT22;24794;51.982;5.878;2022-09-09T06:37:15;17.40;99.90
39033;DHT22;24794;51.982;5.878;2022-09-09T06:38:16;17.30;99.90
39033;DHT22;24794;51.982;5.878;2022-09-09T06:39:16;17.30;99.90
39033;DHT22;24794;51.982;5.878;2022-09-09T06:40:17;17.30;99.90
39033;DHT22;24794;51.982;5.878;2022-09-09T06:41:19;17.30;99.90
39033;DHT22;24794;51.982;5.878;2022-09-09T06:42:20;17.30;99.90
39033;DHT22;24794;51.982;5.878;2022-09-09T06:43:30;17.20;99.90
39033;DHT22;24794;51.982;5.878;2022-09-09T06:44:30;17.30;99.90
39033;DHT22;24794;51.982;5.878;2022-09-09T06:45:32;17.30;99.90
39033;DHT22;24794;51.982;5.878;2022-09-09T06:46:33;17.30;99.90
39033;DHT22;24794;51.982;5.878;2022-09-09T06:47:33;17.20;99.90
39033;DHT22;24794;51.982;5.878;2022-09-09T06:48:34;17.30;99.90
39033;DHT22;24794;51.982;5.878;2022-09-09T06:49:35;17.30;99.90
39033;DHT22;24794;51.982;5.878;2022-09-09T06:50:35;17.30;99.90
39033;DHT22;24794;51.982;5.878;2022-09-09T06:51:37;17.20;99.90
39033;DHT22;24794;51.982;5.878;2022-09-09T06:52:46;17.30;99.90
39033;DHT22;24794;51.982;5.878;2022-09-09T06:53:51;17.30;99.90
39033;DHT22;24794;51.982;5.878;2022-09-09T06:54:52;17.30;99.90
39033;DHT22;24794;51.982;5.878;2022-09-09T06:55:54;17.30;99.90
39033;DHT22;24794;51.982;5.878;2022-09-09T06:56:55;17.30;99.90
39033;DHT22;24794;51.982;5.878;2022-09-09T06:57:55;17.30;99.90
39033;DHT22;24794;51.982;5.878;2022-09-09T06:58:58;17.30;99.90
39033;DHT22;24794;51.982;5.878;2022-09-09T06:59:59;17.30;99.90
39033;DHT22;24794;51.982;5.878;2022-09-09T07:01:07;17.30;99.90
39033;DHT22;24794;51.982;5.878;2022-09-09T07:02:08;17.20;99.90
39033;DHT22;24794;51.982;5.878;2022-09-09T07:03:10;17.20;99.90
39033;DHT22;24794;51.982;5.878;2022-09-09T07:04:11;17.20;99.90
39033;DHT22;24794;51.982;5.878;2022-09-09T07:05:13;17.20;99.90
39033;DHT22;24794;51.982;5.878;2022-09-09T07:06:15;17.20;99.90
39033;DHT22;24794;51.982;5.878;2022-09-09T07:07:17;17.20;99.90
39033;DHT22;24794;51.982;5.878;2022-09-09T07:08:18;17.20;99.90
39033;DHT22;24794;51.982;5.878;2022-09-09T07:09:18;17.20;99.90
39033;DHT22;24794;51.982;5.878;2022-09-09T07:10:19;17.20;99.90
39033;DHT22;24794;51.982;5.878;2022-09-09T07:11:20;17.20;99.90
39033;DHT22;24794;51.982;5.878;2022-09-09T07:12:21;17.20;99.90
39033;DHT22;24794;51.982;5.878;2022-09-09T07:13:26;17.30;99.90
39033;DHT22;24794;51.982;5.878;2022-09-09T07:14:27;17.30;99.90
39033;DHT22;24794;51.982;5.878;2022-09-09T07:15:28;17.30;99.90
39033;DHT22;24794;51.982;5.878;2022-09-09T07:16:29;17.40;99.90
39033;DHT22;24794;51.982;5.878;2022-09-09T07:17:31;17.40;99.90
39033;DHT22;24794;51.982;5.878;2022-09-09T07:18:32;17.30;99.90
39033;DHT22;24794;51.982;5.878;2022-09-09T07:19:33;17.30;99.90
39033;DHT22;24794;51.982;5.878;2022-09-09T07:20:34;17.30;99.90
39033;DHT22;24794;51.982;5.878;2022-09-09T07:21:35;17.30;99.90
39033;DHT22;24794;51.982;5.878;2022-09-09T07:22:35;17.30;99.90
39033;DHT22;24794;51.982;5.878;2022-09-09T07:23:36;17.30;99.90
39033;DHT22;24794;51.982;5.878;2022-09-09T07:24:36;17.30;99.90
39033;DHT22;24794;51.982;5.878;2022-09-09T07:25:37;17.40;99.90
39033;DHT22;24794;51.982;5.878;2022-09-09T07:26:39;17.40;99.90
39033;DHT22;24794;51.982;5.878;2022-09-09T07:27:39;17.40;99.90